Portada
METAR-TAF:

METAR-TAF

Aeropuertos :

Aeropuerto de Sabadell

Sabadell, España

latitud: 41-31N, longitud: 002-06E, altitud: 250 m

Observación

El informe se hizo hace 44 minutos, a las 13:00 UTC
Viento 11 kt del oeste-suroeste, variando entre sur-suroeste y noroeste
Temperatura 23°C
Humedad 38%
Presión 1011 hPa
Visibilidad 10 km o más
Escasas nubes a una altura de 5000 ft

METAR: LELL 261300Z 25011KT 210V320 9999 FEW050 23/08 Q1011

Hora: 15:44 (13:44 UTC)

Pronóstico

El informe se hizo hace 5 horas y 44 minutos, a las 08:00 UTC
Pronóstico válido del 26 a las 09 UTC al 27 a las 09 UTC
Viento 9 kt del oeste-suroeste
Visibilidad 10 km o más
Escasas nubes a una altura de 2500 ft
Temporalmente
del 26 a las 21 UTC al 27 a las 03 UTC
Viento 3 kt con dirección variable

TAF: LELL 260800Z 2609/2709 25009KT 9999 FEW025 TX24/2612Z TN12/2705Z TEMPO 2621/2703 VRB03KT

Observaciones y pronósticos meteorológicos de más de 4000 aeropuertos (mensajes METAR y TAF).

Los puntos amarillos y rojos representan las estaciones disponibles.

Ponga el ratón en el punto deseado para ver el nombre de la estación.

Haga clic para ver las observaciones y los pronósticos meteorológicos.

Para cambiar el mapa : haga clic en los botones verdes con una cruz de color negro para hacer un zoom, en el botón verde con un guión para alejar o en las flechas verdes para mapas adyacentes.


METAR-TAF: